createdAt,value
2017-04-14T00:00:39.585Z,21.25
2017-04-14T00:01:48.624Z,21.32
2017-04-14T00:02:57.389Z,21.32
2017-04-14T00:04:06.763Z,21.22
2017-04-14T00:05:15.822Z,21.25
2017-04-14T00:06:24.850Z,21.24
2017-04-14T00:07:33.593Z,21.25
2017-04-14T00:08:43.586Z,21.22
2017-04-14T00:09:52.962Z,21.24
2017-04-14T00:11:02.331Z,21.21
2017-04-14T00:12:11.415Z,21.21
2017-04-14T00:13:20.781Z,21.21
2017-04-14T00:14:30.457Z,21.22
2017-04-14T00:15:39.824Z,21.22
2017-04-14T00:16:48.606Z,21.22
2017-04-14T00:17:57.981Z,21.24
2017-04-14T00:19:07.321Z,21.2
2017-04-14T00:20:16.631Z,21.17
2017-04-14T00:21:25.968Z,21.17
2017-04-14T00:22:34.946Z,21.18
2017-04-14T00:23:44.638Z,21.2
2017-04-14T00:24:53.714Z,21.21
2017-04-14T00:26:03.408Z,21.2
2017-04-14T00:27:12.141Z,21.18
2017-04-14T00:28:26.345Z,21.2
2017-04-14T00:29:35.107Z,21.21
2017-04-14T00:30:43.885Z,21.18
2017-04-14T00:31:52.953Z,21.15
2017-04-14T00:33:02.026Z,21.2
2017-04-14T00:34:11.393Z,21.15
2017-04-14T00:35:20.147Z,21.21
2017-04-14T00:36:29.217Z,21.2
2017-04-14T00:37:37.978Z,21.15
2017-04-14T00:38:47.350Z,21.15
2017-04-14T00:39:56.406Z,21.06
2017-04-14T00:41:05.128Z,21.06
2017-04-14T00:42:14.178Z,21.11
2017-04-14T00:43:22.945Z,21.12
2017-04-14T00:44:32.624Z,21.11
2017-04-14T00:45:41.691Z,21.15
2017-04-14T00:46:50.461Z,21.18
2017-04-14T00:47:59.285Z,21.12
2017-04-14T00:49:09.248Z,21.05
2017-04-14T00:50:18.621Z,21.12
2017-04-14T00:51:27.690Z,21.07
2017-04-14T00:52:36.959Z,21.14
2017-04-14T00:53:46.333Z,21.17
2017-04-14T00:54:55.399Z,21.09
2017-04-14T00:56:04.170Z,21.18
2017-04-14T00:57:13.547Z,21.17
2017-04-14T00:58:22.665Z,21.12
2017-04-14T00:59:32.241Z,21.11
2017-04-14T01:00:41.005Z,21.14
2017-04-14T01:01:49.763Z,21.12
2017-04-14T01:02:58.834Z,21.07
2017-04-14T01:04:08.212Z,21.07
2017-04-14T01:05:17.584Z,21.09
2017-04-14T01:06:26.914Z,21.11
2017-04-14T01:07:35.636Z,21.11
2017-04-14T01:08:44.666Z,21.06
2017-04-14T01:09:54.008Z,21.07
2017-04-14T01:11:03.304Z,21.06
2017-04-14T01:12:12.368Z,21.07
2017-04-14T01:13:21.136Z,21.09
2017-04-14T01:14:30.780Z,21.06
2017-04-14T01:15:39.511Z,21.12
2017-04-14T01:16:48.891Z,21.07
2017-04-14T01:17:58.315Z,21.09
2017-04-14T01:19:07.386Z,21.09
2017-04-14T01:20:16.459Z,21.07
2017-04-14T01:21:25.226Z,21.09
2017-04-14T01:22:34.456Z,21.07
2017-04-14T01:23:43.789Z,21.07
2017-04-14T01:24:52.506Z,21.03
2017-04-14T01:26:01.857Z,21
2017-04-14T01:27:10.931Z,21.06
2017-04-14T01:28:20.275Z,21.07
2017-04-14T01:29:29.364Z,21.02
2017-04-14T01:30:38.401Z,21.03
2017-04-14T01:31:47.141Z,21.02
2017-04-14T01:32:56.217Z,21.03
2017-04-14T01:34:05.606Z,20.99
2017-04-14T01:35:14.664Z,21.02
2017-04-14T01:36:23.727Z,21.03
2017-04-14T01:37:32.676Z,20.97
2017-04-14T01:38:42.061Z,21.03
2017-04-14T01:39:51.173Z,20.97
2017-04-14T01:40:59.951Z,21.02
2017-04-14T01:42:09.025Z,21
2017-04-14T01:43:17.787Z,20.97
2017-04-14T01:44:27.178Z,20.92
2017-04-14T01:45:36.850Z,21.02
2017-04-14T01:46:45.976Z,21.02
2017-04-14T01:47:54.740Z,20.97
2017-04-14T01:49:03.773Z,21
2017-04-14T01:50:12.491Z,20.99
2017-04-14T01:51:21.269Z,20.95
2017-04-14T01:52:30.637Z,21
2017-04-14T01:53:40.304Z,20.93
2017-04-14T01:54:49.082Z,20.95
2017-04-14T01:55:58.754Z,20.92
2017-04-14T01:57:07.812Z,20.93
2017-04-14T01:58:17.144Z,20.95
2017-04-14T01:59:26.789Z,20.88
2017-04-14T02:00:35.854Z,20.99
2017-04-14T02:01:44.946Z,20.88
2017-04-14T02:02:53.984Z,20.93
2017-04-14T02:04:03.363Z,20.93
2017-04-14T02:05:12.441Z,20.88
2017-04-14T02:06:21.466Z,20.92
2017-04-14T02:07:30.508Z,20.9
2017-04-14T02:08:39.565Z,20.92
2017-04-14T02:09:49.557Z,20.95
2017-04-14T02:10:58.933Z,20.93
2017-04-14T02:12:07.706Z,20.93
2017-04-14T02:13:16.737Z,20.95
2017-04-14T02:14:26.390Z,20.97
2017-04-14T02:15:35.441Z,20.96
2017-04-14T02:16:44.178Z,20.92
2017-04-14T02:17:54.157Z,20.92
2017-04-14T02:19:03.529Z,20.9
2017-04-14T02:20:12.602Z,20.96
2017-04-14T02:21:21.936Z,20.93
2017-04-14T02:22:30.671Z,20.84
2017-04-14T02:23:39.444Z,20.93
2017-04-14T02:24:48.513Z,20.85
2017-04-14T02:25:57.277Z,20.84
2017-04-14T02:27:06.025Z,20.92
2017-04-14T02:28:15.089Z,20.9
2017-04-14T02:29:24.771Z,20.84
2017-04-14T02:30:33.834Z,20.88
2017-04-14T02:31:43.196Z,20.85
2017-04-14T02:32:52.584Z,20.85
2017-04-14T02:34:01.347Z,20.85
2017-04-14T02:35:10.118Z,20.82
2017-04-14T02:36:19.193Z,20.92
2017-04-14T02:37:27.949Z,20.84
2017-04-14T02:38:37.002Z,20.93
2017-04-14T02:39:46.074Z,20.8
2017-04-14T02:40:55.508Z,20.78
2017-04-14T02:42:04.269Z,20.85
2017-04-14T02:43:13.649Z,20.78
2017-04-14T02:44:22.724Z,20.87
2017-04-14T02:45:32.079Z,20.85
2017-04-14T02:46:41.131Z,20.8
2017-04-14T02:47:50.090Z,20.87
2017-04-14T02:48:59.774Z,20.82
2017-04-14T02:50:08.809Z,20.8
2017-04-14T02:51:17.541Z,20.85
2017-04-14T02:52:26.578Z,20.87
2017-04-14T02:53:35.342Z,20.78
2017-04-14T02:54:44.428Z,20.81
2017-04-14T02:55:53.452Z,20.87
2017-04-14T02:57:02.511Z,20.85
2017-04-14T02:58:11.917Z,20.81
2017-04-14T02:59:21.008Z,20.78
2017-04-14T03:00:30.097Z,20.82
2017-04-14T03:01:39.189Z,20.81
2017-04-14T03:02:48.297Z,20.8
2017-04-14T03:03:58.000Z,20.84
2017-04-14T03:05:06.791Z,20.85
2017-04-14T03:06:15.882Z,20.81
2017-04-14T03:07:25.275Z,20.81
2017-04-14T03:08:34.368Z,20.84
2017-04-14T03:09:43.158Z,20.8
2017-04-14T03:10:52.252Z,20.85
2017-04-14T03:12:01.045Z,20.85
2017-04-14T03:13:10.121Z,20.82
2017-04-14T03:14:19.516Z,20.85
2017-04-14T03:15:29.194Z,20.88
2017-04-14T03:16:37.969Z,20.87
2017-04-14T03:17:47.050Z,20.81
2017-04-14T03:18:56.729Z,20.77
2017-04-14T03:20:05.811Z,20.78
2017-04-14T03:21:14.600Z,20.77
2017-04-14T03:22:24.161Z,20.81
2017-04-14T03:23:33.224Z,20.78
2017-04-14T03:24:41.971Z,20.77
2017-04-14T03:25:51.300Z,20.77
2017-04-14T03:27:00.364Z,20.77
2017-04-14T03:28:09.161Z,20.8
2017-04-14T03:29:18.557Z,20.78
2017-04-14T03:30:27.910Z,20.74
2017-04-14T03:31:36.973Z,20.75
2017-04-14T03:32:45.763Z,20.75
2017-04-14T03:33:54.554Z,20.78
2017-04-14T03:35:04.761Z,20.77
2017-04-14T03:36:13.551Z,20.7
2017-04-14T03:37:22.341Z,20.69
2017-04-14T03:38:31.128Z,20.7
2017-04-14T03:39:40.225Z,20.74
2017-04-14T03:40:49.624Z,20.74
2017-04-14T03:41:58.412Z,20.77
2017-04-14T03:43:07.463Z,20.69
2017-04-14T03:44:16.525Z,20.66
2017-04-14T03:45:26.114Z,20.66
2017-04-14T03:46:35.168Z,20.72
2017-04-14T03:47:43.886Z,20.67
2017-04-14T03:48:54.174Z,20.66
2017-04-14T03:50:02.959Z,20.66
2017-04-14T03:51:11.742Z,20.66
2017-04-14T03:52:20.770Z,20.66
2017-04-14T03:53:29.868Z,20.67
2017-04-14T03:54:39.099Z,20.77
2017-04-14T03:55:48.773Z,20.72
2017-04-14T03:56:57.560Z,20.72
2017-04-14T03:58:06.657Z,20.7
2017-04-14T03:59:15.757Z,20.77
2017-04-14T04:00:24.887Z,20.75
2017-04-14T04:01:33.938Z,20.81
2017-04-14T04:02:43.017Z,20.74
2017-04-14T04:03:51.797Z,20.7
2017-04-14T04:05:02.114Z,20.7
2017-04-14T04:06:10.912Z,20.74
2017-04-14T04:07:19.994Z,20.75
2017-04-14T04:08:29.090Z,20.74
2017-04-14T04:09:38.490Z,20.85
2017-04-14T04:10:47.535Z,20.81
2017-04-14T04:11:56.632Z,20.85
2017-04-14T04:13:06.297Z,20.77
2017-04-14T04:14:15.050Z,20.85
2017-04-14T04:15:24.139Z,20.8
2017-04-14T04:16:32.921Z,20.81
2017-04-14T04:17:42.008Z,20.82
2017-04-14T04:18:51.427Z,20.84
2017-04-14T04:20:00.526Z,20.82
2017-04-14T04:21:09.843Z,20.82
2017-04-14T04:22:19.218Z,20.82
2017-04-14T04:23:29.240Z,20.87
2017-04-14T04:24:38.634Z,20.95
2017-04-14T04:25:47.428Z,20.85
2017-04-14T04:26:56.515Z,20.81
2017-04-14T04:28:06.224Z,20.82
2017-04-14T04:29:15.584Z,20.93
2017-04-14T04:30:25.253Z,20.93
2017-04-14T04:31:34.307Z,20.88
2017-04-14T04:32:43.682Z,20.88
2017-04-14T04:33:52.775Z,20.95
2017-04-14T04:35:02.786Z,20.96
2017-04-14T04:36:11.871Z,20.88
2017-04-14T04:37:20.972Z,20.9
2017-04-14T04:38:29.764Z,20.87
2017-04-14T04:39:38.859Z,20.95
2017-04-14T04:40:47.964Z,20.92
2017-04-14T04:41:56.708Z,20.96
2017-04-14T04:43:05.782Z,20.95
2017-04-14T04:44:14.523Z,21.03
2017-04-14T04:45:23.586Z,20.99
2017-04-14T04:46:32.941Z,20.99
2017-04-14T04:47:41.676Z,21.03
2017-04-14T04:48:50.705Z,21.06
2017-04-14T04:50:00.391Z,21.06
2017-04-14T04:51:09.180Z,21.07
2017-04-14T04:52:18.575Z,21.06
2017-04-14T04:53:27.968Z,21.06
2017-04-14T04:54:37.055Z,21
2017-04-14T04:55:45.891Z,21.07
2017-04-14T04:56:54.984Z,21.15
2017-04-14T04:58:04.374Z,21.18
2017-04-14T04:59:13.763Z,21.12
2017-04-14T05:00:23.154Z,21.11
2017-04-14T05:01:32.575Z,21.12
2017-04-14T05:02:41.664Z,21.12
2017-04-14T05:03:50.745Z,21.15
2017-04-14T05:04:59.805Z,21.17
2017-04-14T05:06:09.171Z,21.18
2017-04-14T05:07:18.570Z,21.17
2017-04-14T05:08:27.726Z,21.22
2017-04-14T05:09:37.115Z,21.22
2017-04-14T05:10:45.892Z,21.22
2017-04-14T05:11:54.987Z,21.25
2017-04-14T05:13:03.766Z,21.22
2017-04-14T05:14:13.454Z,21.18
2017-04-14T05:15:23.169Z,21.21
2017-04-14T05:16:32.566Z,21.32
2017-04-14T05:17:41.659Z,21.29
2017-04-14T05:18:51.676Z,21.24
2017-04-14T05:20:01.388Z,21.3
2017-04-14T05:21:10.171Z,21.25
2017-04-14T05:22:19.580Z,21.32
2017-04-14T05:23:28.367Z,21.36
2017-04-14T05:24:37.761Z,21.35
2017-04-14T05:25:46.855Z,21.36
2017-04-14T05:26:56.260Z,21.25
2017-04-14T05:28:05.712Z,21.39
2017-04-14T05:29:14.807Z,21.36
2017-04-14T05:30:24.206Z,21.42
2017-04-14T05:31:33.562Z,21.43
2017-04-14T05:32:42.883Z,21.46
2017-04-14T05:33:52.241Z,21.5
2017-04-14T05:35:01.005Z,21.42
2017-04-14T05:36:09.754Z,21.48
2017-04-14T05:37:18.869Z,21.51
2017-04-14T05:38:28.271Z,21.52
2017-04-14T05:39:37.979Z,21.51
2017-04-14T05:40:47.378Z,21.57
2017-04-14T05:41:56.165Z,21.57
2017-04-14T05:43:05.217Z,21.51
2017-04-14T05:44:14.549Z,21.62
2017-04-14T05:45:23.910Z,21.64
2017-04-14T05:46:32.691Z,21.61
2017-04-14T05:47:42.426Z,21.57
2017-04-14T05:48:51.826Z,21.58
2017-04-14T05:50:01.176Z,21.57
2017-04-14T05:51:09.894Z,21.62
2017-04-14T05:52:18.957Z,21.64
2017-04-14T05:53:28.670Z,21.72
2017-04-14T05:54:38.283Z,21.66
2017-04-14T05:55:47.382Z,21.73
2017-04-14T05:56:56.475Z,21.7
2017-04-14T05:58:05.582Z,21.7
2017-04-14T05:59:14.714Z,21.75
2017-04-14T06:00:24.120Z,21.75
2017-04-14T06:01:33.212Z,21.69
2017-04-14T06:02:42.818Z,21.77
2017-04-14T06:03:52.214Z,21.72
2017-04-14T06:05:01.577Z,21.77
2017-04-14T06:06:10.656Z,21.8
2017-04-14T06:07:20.014Z,21.8
2017-04-14T06:08:29.080Z,21.89
2017-04-14T06:09:38.186Z,21.89
2017-04-14T06:10:47.244Z,21.89
2017-04-14T06:11:56.679Z,21.96
2017-04-14T06:13:05.463Z,21.93
2017-04-14T06:14:14.564Z,21.92
2017-04-14T06:15:23.311Z,22
2017-04-14T06:16:32.684Z,22.08
2017-04-14T06:17:42.095Z,22.06
2017-04-14T06:18:51.500Z,22.11
2017-04-14T06:20:00.862Z,21.99
2017-04-14T06:21:09.964Z,22.1
2017-04-14T06:22:19.062Z,22.11
2017-04-14T06:23:28.152Z,22.06
2017-04-14T06:24:37.858Z,22.08
2017-04-14T06:25:46.662Z,22.11
2017-04-14T06:26:55.761Z,22.08
2017-04-14T06:28:04.546Z,22.14
2017-04-14T06:29:14.238Z,22.13
2017-04-14T06:30:23.527Z,22.07
2017-04-14T06:31:32.630Z,22.11
2017-04-14T06:32:41.724Z,22.07
2017-04-14T06:33:50.810Z,22.07
2017-04-14T06:35:00.572Z,22.15
2017-04-14T06:36:09.369Z,22.07
2017-04-14T06:37:18.113Z,22.11
2017-04-14T06:38:27.178Z,22.13
2017-04-14T06:39:36.272Z,22.18
2017-04-14T06:40:45.201Z,22.1
2017-04-14T06:41:53.966Z,22.15
2017-04-14T06:43:03.026Z,22.17
2017-04-14T06:44:11.783Z,22.1
2017-04-14T06:45:21.799Z,22.15
2017-04-14T06:46:30.587Z,22.22
2017-04-14T06:47:39.331Z,22.14
2017-04-14T06:48:48.701Z,22.13
2017-04-14T06:49:57.813Z,22.11
2017-04-14T06:51:06.893Z,22.14
2017-04-14T06:52:15.998Z,22.15
2017-04-14T06:53:25.400Z,22.14
2017-04-14T06:54:34.491Z,22.17
2017-04-14T06:55:43.320Z,22.22
2017-04-14T06:56:52.729Z,22.28
2017-04-14T06:58:02.428Z,22.2
2017-04-14T06:59:11.527Z,22.13
2017-04-14T07:00:20.926Z,22.17
2017-04-14T07:01:29.716Z,22.18
2017-04-14T07:02:38.499Z,22.17
2017-04-14T07:03:47.888Z,22.1
2017-04-14T07:04:57.600Z,22.11
2017-04-14T07:06:07.033Z,22.11
2017-04-14T07:07:16.089Z,22.14
2017-04-14T07:08:24.841Z,22.15
2017-04-14T07:09:33.899Z,22.1
2017-04-14T07:10:42.653Z,22.13
2017-04-14T07:11:51.720Z,22.06
2017-04-14T07:13:00.513Z,22.1
2017-04-14T07:14:09.607Z,22.08
2017-04-14T07:15:18.385Z,22.11
2017-04-14T07:16:27.170Z,22.06
2017-04-14T07:17:35.962Z,22.06
2017-04-14T07:18:45.056Z,22.06
2017-04-14T07:19:54.766Z,22.07
2017-04-14T07:21:04.169Z,22.1
2017-04-14T07:22:13.263Z,22.1
2017-04-14T07:23:22.668Z,22.08
2017-04-14T07:24:31.957Z,22.1
2017-04-14T07:25:40.753Z,22.08
2017-04-14T07:26:49.842Z,22.02
2017-04-14T07:27:58.932Z,22.1
2017-04-14T07:29:08.021Z,21.98
2017-04-14T07:30:17.386Z,22.08
2017-04-14T07:31:26.498Z,22.08
2017-04-14T07:32:35.554Z,22.08
2017-04-14T07:33:45.230Z,22.06
2017-04-14T07:34:54.825Z,22.1
2017-04-14T07:36:04.182Z,22.07
2017-04-14T07:37:13.576Z,22.04
2017-04-14T07:38:22.980Z,22.04
2017-04-14T07:39:32.684Z,22.1
2017-04-14T07:40:42.085Z,22.1
2017-04-14T07:41:50.841Z,22.06
2017-04-14T07:42:59.907Z,21.95
2017-04-14T07:44:09.263Z,22.1
2017-04-14T07:45:18.328Z,21.99
2017-04-14T07:46:27.073Z,22.02
2017-04-14T07:47:36.149Z,22
2017-04-14T07:48:44.900Z,21.99
2017-04-14T07:49:54.589Z,21.96
2017-04-14T07:51:03.634Z,22.08
2017-04-14T07:52:12.388Z,21.98
2017-04-14T07:53:22.099Z,21.96
2017-04-14T07:54:31.183Z,22.04
2017-04-14T07:55:39.968Z,21.98
2017-04-14T07:56:49.065Z,21.99
2017-04-14T07:57:59.030Z,22
2017-04-14T07:59:08.046Z,22
2017-04-14T08:00:17.117Z,21.98
2017-04-14T08:01:26.219Z,22.07
2017-04-14T08:02:35.319Z,21.98
2017-04-14T08:03:44.760Z,22.06
2017-04-14T08:04:53.863Z,21.99
2017-04-14T08:06:03.218Z,22.1
2017-04-14T08:07:11.981Z,22.11
2017-04-14T08:08:20.762Z,22.06
2017-04-14T08:09:29.863Z,22.1
2017-04-14T08:10:39.260Z,22.04
2017-04-14T08:11:48.036Z,22.08
2017-04-14T08:12:57.096Z,22.13
2017-04-14T08:14:06.463Z,22.06
2017-04-14T08:15:15.209Z,22.1
2017-04-14T08:16:23.960Z,22.06
2017-04-14T08:17:33.328Z,22.07
2017-04-14T08:18:42.700Z,22.08
2017-04-14T08:19:51.489Z,22.07
2017-04-14T08:21:00.251Z,22.06
2017-04-14T08:22:09.335Z,22.08
2017-04-14T08:23:19.543Z,22.1
2017-04-14T08:24:28.370Z,22.1
2017-04-14T08:25:37.459Z,22.04
2017-04-14T08:26:46.562Z,22.07
2017-04-14T08:27:55.615Z,22.08
2017-04-14T08:29:04.392Z,22.1
2017-04-14T08:30:13.787Z,22.1
2017-04-14T08:31:22.891Z,22.08
2017-04-14T08:32:32.287Z,22.06
2017-04-14T08:33:42.002Z,22.06
2017-04-14T08:34:51.707Z,22.1
2017-04-14T08:36:00.795Z,22.11
2017-04-14T08:37:10.202Z,22.1
2017-04-14T08:38:19.610Z,22.13
2017-04-14T08:39:28.702Z,22.02
2017-04-14T08:40:37.798Z,22.06
2017-04-14T08:41:47.198Z,22.04
2017-04-14T08:42:55.950Z,22.08
2017-04-14T08:44:05.015Z,22.04
2017-04-14T08:45:14.139Z,22.11
2017-04-14T08:46:22.917Z,22.06
2017-04-14T08:47:31.697Z,22.1
2017-04-14T08:48:40.764Z,22.08
2017-04-14T08:49:50.134Z,22.15
2017-04-14T08:50:59.541Z,22.08
2017-04-14T08:52:08.584Z,22.11
2017-04-14T08:53:17.641Z,22.1
2017-04-14T08:54:26.733Z,22.07
2017-04-14T08:55:36.015Z,22.13
2017-04-14T08:56:45.409Z,22.06
2017-04-14T08:57:54.203Z,22.08
2017-04-14T08:59:03.297Z,22.08
2017-04-14T09:00:12.693Z,22.13
2017-04-14T09:01:22.070Z,22.11
2017-04-14T09:02:30.890Z,22.11
2017-04-14T09:03:39.994Z,22.11
2017-04-14T09:04:49.082Z,22.14
2017-04-14T09:05:58.140Z,22.08
2017-04-14T09:07:07.202Z,22.06
2017-04-14T09:08:16.301Z,22.06
2017-04-14T09:09:25.969Z,22.06
2017-04-14T09:10:35.043Z,22.08
2017-04-14T09:11:43.833Z,22.06
2017-04-14T09:12:52.617Z,22.08
2017-04-14T09:14:01.394Z,22.08
2017-04-14T09:15:10.177Z,22.1
2017-04-14T09:16:19.874Z,22.06
2017-04-14T09:17:28.686Z,22.15
2017-04-14T09:18:37.457Z,22.13
2017-04-14T09:19:46.263Z,22.15
2017-04-14T09:20:55.061Z,22.06
2017-04-14T09:22:04.137Z,22.08
2017-04-14T09:23:13.228Z,22.13
2017-04-14T09:24:22.631Z,22.15
2017-04-14T09:25:31.428Z,22.18
2017-04-14T09:26:40.223Z,22.1
2017-04-14T09:27:49.366Z,22.1
2017-04-14T09:28:58.457Z,22.14
2017-04-14T09:30:07.521Z,22.07
2017-04-14T09:31:16.282Z,22.13
2017-04-14T09:32:25.069Z,22.15
2017-04-14T09:33:33.815Z,22.13
2017-04-14T09:34:42.882Z,22.18
2017-04-14T09:35:51.629Z,22.2
2017-04-14T09:37:00.677Z,22.11
2017-04-14T09:38:09.471Z,22.23
2017-04-14T09:39:18.571Z,22.2
2017-04-14T09:40:27.688Z,22.28
2017-04-14T09:41:36.748Z,22.13
2017-04-14T09:42:45.819Z,22.23
2017-04-14T09:43:55.527Z,22.15
2017-04-14T09:45:04.938Z,22.2
2017-04-14T09:46:13.735Z,22.23
2017-04-14T09:47:22.830Z,22.25
2017-04-14T09:48:31.818Z,22.22
2017-04-14T09:49:41.181Z,22.26
2017-04-14T09:50:50.233Z,22.25
2017-04-14T09:51:59.634Z,22.28
2017-04-14T09:53:08.434Z,22.29
2017-04-14T09:54:17.836Z,22.29
2017-04-14T09:55:27.232Z,22.29
2017-04-14T09:56:36.328Z,22.33
2017-04-14T09:57:45.386Z,22.25
2017-04-14T09:58:54.686Z,22.29
2017-04-14T10:00:03.768Z,22.41
2017-04-14T10:01:12.824Z,22.32
2017-04-14T10:02:21.866Z,22.36
2017-04-14T10:03:30.620Z,22.38
2017-04-14T10:04:39.426Z,22.3
2017-04-14T10:05:48.218Z,22.38
2017-04-14T10:06:57.000Z,22.39
2017-04-14T10:08:06.099Z,22.35
2017-04-14T10:09:15.148Z,22.38
2017-04-14T10:10:23.910Z,22.39
2017-04-14T10:11:32.688Z,22.33
2017-04-14T10:12:42.050Z,22.41
2017-04-14T10:13:51.427Z,22.36
2017-04-14T10:15:00.486Z,22.44
2017-04-14T10:16:09.500Z,22.43
2017-04-14T10:17:18.868Z,22.43
2017-04-14T10:18:28.246Z,22.43
2017-04-14T10:19:37.022Z,22.43
2017-04-14T10:20:46.698Z,22.48
2017-04-14T10:21:55.420Z,22.54
2017-04-14T10:23:04.792Z,22.51
2017-04-14T10:24:14.194Z,22.53
2017-04-14T10:25:23.587Z,22.54
2017-04-14T10:26:32.671Z,22.53
2017-04-14T10:27:41.771Z,22.53
2017-04-14T10:28:51.469Z,22.55
2017-04-14T10:30:00.877Z,22.63
2017-04-14T10:31:09.674Z,22.62
2017-04-14T10:32:19.364Z,22.59
2017-04-14T10:33:28.731Z,22.63
2017-04-14T10:34:37.827Z,22.63
2017-04-14T10:35:47.197Z,22.65
2017-04-14T10:36:55.958Z,22.65
2017-04-14T10:38:04.750Z,22.68
2017-04-14T10:39:13.848Z,22.59
2017-04-14T10:40:22.942Z,22.65
2017-04-14T10:41:31.737Z,22.65
2017-04-14T10:42:41.240Z,22.65
2017-04-14T10:43:50.674Z,22.65
2017-04-14T10:44:59.774Z,22.69
2017-04-14T10:46:09.168Z,22.69
2017-04-14T10:47:18.261Z,22.69
2017-04-14T10:48:27.616Z,22.69
2017-04-14T10:49:36.991Z,22.72
2017-04-14T10:50:45.878Z,22.72
2017-04-14T10:51:54.662Z,22.66
2017-04-14T10:53:03.961Z,22.69
2017-04-14T10:54:13.663Z,22.65
2017-04-14T10:55:22.768Z,22.62
2017-04-14T10:56:31.558Z,22.68
2017-04-14T10:57:40.656Z,22.65
2017-04-14T10:58:50.260Z,22.65
2017-04-14T10:59:59.656Z,22.63
2017-04-14T11:01:09.059Z,22.63
2017-04-14T11:02:17.855Z,22.63
2017-04-14T11:03:27.261Z,22.66
2017-04-14T11:04:37.174Z,22.66
2017-04-14T11:05:46.060Z,22.68
2017-04-14T11:06:55.153Z,22.66
2017-04-14T11:08:03.936Z,22.72
2017-04-14T11:09:13.377Z,22.72
2017-04-14T11:10:22.170Z,22.7
2017-04-14T11:11:31.218Z,22.85
2017-04-14T11:12:40.296Z,22.83
2017-04-14T11:13:49.703Z,22.99
2017-04-14T11:14:58.450Z,22.93
2017-04-14T11:16:07.837Z,22.98
2017-04-14T11:17:16.629Z,22.99
2017-04-14T11:18:25.715Z,23.02
2017-04-14T11:19:34.814Z,23.09
2017-04-14T11:20:43.762Z,23.1
2017-04-14T11:21:52.504Z,23.24
2017-04-14T11:23:01.874Z,23.23
2017-04-14T11:24:10.968Z,23.31
2017-04-14T11:25:20.629Z,23.36
2017-04-14T11:26:30.016Z,23.37
2017-04-14T11:27:39.118Z,23.36
2017-04-14T11:28:48.571Z,23.28
2017-04-14T11:29:57.991Z,23.27
2017-04-14T11:31:07.607Z,23.2
2017-04-14T11:32:17.323Z,23.13
2017-04-14T11:33:26.726Z,23.2
2017-04-14T11:34:35.822Z,23.13
2017-04-14T11:35:45.226Z,23.03
2017-04-14T11:36:54.896Z,23.08
2017-04-14T11:38:03.945Z,23.06
2017-04-14T11:39:13.015Z,23
2017-04-14T11:40:22.389Z,23.09
2017-04-14T11:41:31.137Z,23.03
2017-04-14T11:42:40.516Z,23
2017-04-14T11:43:50.224Z,22.93
2017-04-14T11:44:59.310Z,22.96
2017-04-14T11:46:08.096Z,22.98
2017-04-14T11:47:17.503Z,22.93
2017-04-14T11:48:26.599Z,22.83
2017-04-14T11:49:35.384Z,22.87
2017-04-14T11:50:44.227Z,22.84
2017-04-14T11:51:53.293Z,22.73
2017-04-14T11:53:02.078Z,22.84
2017-04-14T11:54:10.877Z,22.72
2017-04-14T11:55:20.050Z,22.69
2017-04-14T11:56:29.143Z,22.66
2017-04-14T11:57:38.241Z,22.75
2017-04-14T11:58:48.273Z,22.68
2017-04-14T11:59:57.055Z,22.72
2017-04-14T12:01:06.151Z,22.65
2017-04-14T12:02:15.212Z,22.63
2017-04-14T12:03:24.274Z,22.68
2017-04-14T12:04:33.061Z,22.54
2017-04-14T12:05:42.772Z,22.5
2017-04-14T12:06:51.521Z,22.47
2017-04-14T12:08:01.136Z,22.53
2017-04-14T12:09:09.925Z,22.54
2017-04-14T12:10:18.710Z,22.43
2017-04-14T12:11:28.107Z,22.41
2017-04-14T12:12:36.883Z,22.44
2017-04-14T12:13:46.223Z,22.36
2017-04-14T12:14:55.620Z,22.33
2017-04-14T12:16:04.677Z,22.35
2017-04-14T12:17:13.729Z,22.39
2017-04-14T12:18:22.781Z,22.41
2017-04-14T12:19:31.587Z,22.44
2017-04-14T12:20:40.381Z,22.41
2017-04-14T12:21:49.370Z,22.3
2017-04-14T12:22:58.806Z,22.33
2017-04-14T12:24:07.608Z,22.29
2017-04-14T12:25:16.393Z,22.28
2017-04-14T12:26:25.481Z,22.38
2017-04-14T12:27:34.578Z,22.29
2017-04-14T12:28:44.000Z,22.29
2017-04-14T12:29:53.405Z,22.39
2017-04-14T12:31:02.189Z,22.32
2017-04-14T12:32:10.965Z,22.32
2017-04-14T12:33:20.010Z,22.33
2017-04-14T12:34:29.586Z,22.38
2017-04-14T12:35:38.357Z,22.28
2017-04-14T12:36:47.497Z,22.41
2017-04-14T12:37:56.603Z,22.35
2017-04-14T12:39:05.388Z,22.3
2017-04-14T12:40:14.493Z,22.3
2017-04-14T12:41:23.852Z,22.33
2017-04-14T12:42:32.607Z,22.28
2017-04-14T12:43:41.391Z,22.33
2017-04-14T12:44:50.173Z,22.41
2017-04-14T12:45:59.577Z,22.38
2017-04-14T12:47:08.674Z,22.39
2017-04-14T12:48:17.776Z,22.35
2017-04-14T12:49:26.872Z,22.36
2017-04-14T12:50:35.680Z,22.43
2017-04-14T12:51:44.461Z,22.39
2017-04-14T12:52:53.490Z,22.32
2017-04-14T12:54:03.192Z,22.39
2017-04-14T12:55:12.298Z,22.38
2017-04-14T12:56:21.283Z,22.41
2017-04-14T12:57:30.654Z,22.38
2017-04-14T12:58:39.752Z,22.41
2017-04-14T12:59:48.803Z,22.44
2017-04-14T13:00:57.863Z,22.36
2017-04-14T13:02:06.646Z,22.39
2017-04-14T13:03:16.053Z,22.41
2017-04-14T13:04:25.456Z,22.44
2017-04-14T13:05:34.238Z,22.39
2017-04-14T13:06:42.986Z,22.3
2017-04-14T13:07:52.096Z,22.36
2017-04-14T13:09:01.455Z,22.38
2017-04-14T13:10:10.537Z,22.35
2017-04-14T13:11:19.631Z,22.3
2017-04-14T13:12:28.425Z,22.29
2017-04-14T13:13:37.474Z,22.35
2017-04-14T13:14:47.156Z,22.3
2017-04-14T13:15:55.942Z,22.28
2017-04-14T13:17:04.726Z,22.28
2017-04-14T13:18:13.513Z,22.23
2017-04-14T13:19:22.927Z,22.25
2017-04-14T13:20:32.643Z,22.28
2017-04-14T13:21:41.726Z,22.33
2017-04-14T13:22:50.787Z,22.33
2017-04-14T13:24:00.465Z,22.28
2017-04-14T13:25:09.251Z,22.28
2017-04-14T13:26:18.350Z,22.36
2017-04-14T13:27:27.438Z,22.26
2017-04-14T13:28:36.518Z,22.41
2017-04-14T13:29:45.966Z,22.38
2017-04-14T13:30:55.064Z,22.45
2017-04-14T13:32:04.150Z,22.28
2017-04-14T13:33:13.235Z,22.32
2017-04-14T13:34:23.141Z,22.33
2017-04-14T13:35:31.946Z,22.33
2017-04-14T13:36:40.782Z,22.41
2017-04-14T13:37:49.568Z,22.25
2017-04-14T13:38:58.315Z,22.41
2017-04-14T13:40:07.069Z,22.44
2017-04-14T13:41:16.155Z,22.41
2017-04-14T13:42:24.863Z,22.38
2017-04-14T13:43:33.590Z,22.41
2017-04-14T13:44:42.355Z,22.38
2017-04-14T13:45:51.111Z,22.43
2017-04-14T13:47:00.487Z,22.36
2017-04-14T13:48:09.889Z,22.41
2017-04-14T13:49:19.603Z,22.41
2017-04-14T13:50:29.361Z,22.33
2017-04-14T13:51:38.153Z,22.38
2017-04-14T13:52:46.938Z,22.41
2017-04-14T13:53:55.690Z,22.33
2017-04-14T13:55:04.965Z,22.35
2017-04-14T13:56:13.765Z,22.3
2017-04-14T13:57:22.818Z,22.35
2017-04-14T13:58:32.150Z,22.36
2017-04-14T13:59:41.874Z,22.38
2017-04-14T14:00:50.932Z,22.35
2017-04-14T14:01:59.978Z,22.28
2017-04-14T14:03:08.740Z,22.28
2017-04-14T14:04:17.840Z,22.26
2017-04-14T14:05:27.545Z,22.41
2017-04-14T14:06:36.331Z,22.33
2017-04-14T14:07:45.093Z,22.33
2017-04-14T14:08:54.157Z,22.3
2017-04-14T14:10:03.252Z,22.39
2017-04-14T14:11:12.049Z,22.35
2017-04-14T14:12:20.797Z,22.39
2017-04-14T14:13:30.169Z,22.39
2017-04-14T14:14:38.948Z,22.28
2017-04-14T14:15:48.055Z,22.41
2017-04-14T14:16:57.157Z,22.36
2017-04-14T14:18:06.520Z,22.35
2017-04-14T14:19:15.252Z,22.39
2017-04-14T14:20:24.927Z,22.35
2017-04-14T14:21:33.990Z,22.41
2017-04-14T14:22:43.698Z,22.39
2017-04-14T14:23:52.766Z,22.43
2017-04-14T14:25:02.144Z,22.45
2017-04-14T14:26:11.548Z,22.41
2017-04-14T14:27:20.316Z,22.41
2017-04-14T14:28:29.413Z,22.39
2017-04-14T14:29:38.505Z,22.41
2017-04-14T14:30:47.930Z,22.39
2017-04-14T14:31:56.993Z,22.44
2017-04-14T14:33:06.089Z,22.36
2017-04-14T14:34:15.491Z,22.41
2017-04-14T14:35:24.586Z,22.43
2017-04-14T14:36:33.375Z,22.43
2017-04-14T14:37:42.461Z,22.36
2017-04-14T14:38:51.553Z,22.36
2017-04-14T14:40:00.649Z,22.33
2017-04-14T14:41:09.700Z,22.38
2017-04-14T14:42:18.779Z,22.35
2017-04-14T14:43:27.861Z,22.43
2017-04-14T14:44:36.928Z,22.39
2017-04-14T14:45:46.328Z,22.45
2017-04-14T14:46:55.367Z,22.39
2017-04-14T14:48:04.428Z,22.45
2017-04-14T14:49:13.539Z,22.39
2017-04-14T14:50:22.327Z,22.43
2017-04-14T14:51:31.115Z,22.45
2017-04-14T14:52:40.182Z,22.41
2017-04-14T14:53:48.938Z,22.43
2017-04-14T14:54:58.223Z,22.44